Time;durP1;ratioP1;P1;durP2;ratioP2;P2;SDS_P1;SDS_P2;PMS_P1;PMS_P2;Temp;Humidity;BMP_temperature;BMP_pressure;BME280_temperature;BME280_humidity;BME280_pressure;Samples;Min_cycle;Max_cycle;Signal;HPM_P1;HPM_P2
2022/03/28 00:02:05;;;;;;;44.08;22.10;;;;;;;-141.50;100.00;63355.56;5085849;28;20087;-75
2022/03/28 00:04:32;;;;;;;40.90;20.30;;;;;;;-141.50;100.00;63355.56;5091304;28;20456;-74
2022/03/28 00:06:59;;;;;;;45.40;22.00;;;;;;;-141.50;100.00;63355.56;5106236;28;20445;-76
2022/03/28 00:09:25;;;;;;;46.60;22.85;;;;;;;-141.50;100.00;63355.56;5110791;28;20055;-78
2022/03/28 00:11:52;;;;;;;45.03;22.40;;;;;;;-141.50;100.00;63355.56;5109765;28;20612;-77
2022/03/28 00:14:19;;;;;;;40.47;21.38;;;;;;;-141.50;100.00;63355.56;5098861;28;20392;-77
2022/03/28 00:16:45;;;;;;;46.65;21.55;;;;;;;-141.50;100.00;63355.56;5104052;28;20051;-75
2022/03/28 00:19:12;;;;;;;42.50;20.02;;;;;;;-141.50;100.00;63355.56;5109841;28;20410;-76
2022/03/28 00:21:38;;;;;;;36.75;19.50;;;;;;;-141.50;100.00;63355.56;5109307;28;20109;-77
2022/03/28 00:24:05;;;;;;;40.83;20.73;;;;;;;-141.50;100.00;63355.56;5110654;28;20200;-77
2022/03/28 00:26:32;;;;;;;44.78;21.40;;;;;;;-141.50;100.00;63355.56;5098558;28;20056;-79
2022/03/28 00:28:58;;;;;;;41.85;22.05;;;;;;;-141.50;100.00;63355.56;5109781;28;20171;-76
2022/03/28 00:31:25;;;;;;;38.08;19.83;;;;;;;-141.50;100.00;63355.56;5109234;28;20070;-78
2022/03/28 00:33:51;;;;;;;40.78;20.58;;;;;;;-141.50;100.00;63355.56;5109231;28;20150;-77
2022/03/28 00:36:18;;;;;;;38.38;20.15;;;;;;;-141.50;100.00;63355.56;5110045;28;20059;-77
2022/03/28 00:38:45;;;;;;;37.13;19.98;;;;;;;-141.50;100.00;63355.56;5109980;28;20043;-76
2022/03/28 00:41:11;;;;;;;34.58;18.67;;;;;;;-141.50;100.00;63355.56;5109122;28;20104;-76
2022/03/28 00:43:53;;;;;;;35.92;17.80;;;;;;;-141.50;100.00;63355.56;5109550;28;20047;-77
2022/03/28 00:46:20;;;;;;;35.47;18.45;;;;;;;-141.50;100.00;63355.56;5109404;28;20055;-75
2022/03/28 00:48:48;;;;;;;37.30;19.73;;;;;;;-141.50;100.00;63355.56;5109083;28;20499;-75
2022/03/28 00:51:16;;;;;;;38.03;19.35;;;;;;;-141.50;100.00;63355.56;5108981;28;20043;-75
2022/03/28 00:53:44;;;;;;;38.88;19.02;;;;;;;-141.50;100.00;63355.56;5092194;28;20047;-78
2022/03/28 00:56:12;;;;;;;36.95;19.20;;;;;;;-141.50;100.00;63355.56;5109543;28;20047;-76
2022/03/28 00:58:39;;;;;;;35.03;19.02;;;;;;;-141.50;100.00;63355.56;5109547;28;20104;-75
2022/03/28 01:01:06;;;;;;;37.20;17.80;;;;;;;-141.50;100.00;63355.56;5108761;28;20071;-78
2022/03/28 01:03:33;;;;;;;35.20;18.77;;;;;;;-141.50;100.00;63355.56;5090790;28;20056;-76
2022/03/28 01:06:00;;;;;;;34.50;17.23;;;;;;;-141.50;100.00;63355.56;5109417;28;20055;-76
2022/03/28 01:08:26;;;;;;;28.10;15.77;;;;;;;-141.50;100.00;63355.56;5110054;28;20075;-75
2022/03/28 01:10:56;;;;;;;32.53;17.65;;;;;;;-141.50;100.00;63355.56;5090580;28;20047;-77
2022/03/28 01:13:24;;;;;;;40.75;19.92;;;;;;;-141.50;100.00;63355.56;5077008;28;20079;-76
2022/03/28 01:15:50;;;;;;;37.90;19.90;;;;;;;-141.50;100.00;63355.56;5102865;28;20417;-76
2022/03/28 01:18:17;;;;;;;39.22;21.23;;;;;;;-141.50;100.00;63355.56;5095589;28;20051;-76
2022/03/28 01:20:44;;;;;;;37.60;19.30;;;;;;;-141.50;100.00;63355.56;5088209;28;20601;-77
2022/03/28 01:23:11;;;;;;;38.33;19.05;;;;;;;-141.50;100.00;63355.56;5089136;28;20059;-77
2022/03/28 01:25:37;;;;;;;40.00;21.67;;;;;;;-141.50;100.00;63355.56;5088888;28;20123;-77
2022/03/28 01:28:04;;;;;;;42.30;22.55;;;;;;;-141.50;100.00;63355.56;5088291;28;20448;-77
2022/03/28 01:30:32;;;;;;;42.67;21.88;;;;;;;-141.50;100.00;63355.56;5088958;28;20135;-75
2022/03/28 01:33:00;;;;;;;41.25;21.83;;;;;;;-141.50;100.00;63355.56;5089167;28;20051;-75
2022/03/28 01:35:31;;;;;;;39.67;21.63;;;;;;;-141.50;100.00;63355.56;5071074;28;20052;-77
2022/03/28 01:37:59;;;;;;;42.95;21.98;;;;;;;-141.50;100.00;63355.56;5089308;28;20138;-77
2022/03/28 01:40:26;;;;;;;42.92;21.63;;;;;;;-141.50;100.00;63355.56;5070577;28;20048;-77
2022/03/28 01:42:53;;;;;;;44.17;22.42;;;;;;;-141.50;100.00;63355.56;5088386;28;20135;-76
2022/03/28 01:45:20;;;;;;;42.10;22.65;;;;;;;-141.50;100.00;63355.56;5087988;28;20593;-77
2022/03/28 01:47:47;;;;;;;44.78;23.17;;;;;;;-141.50;100.00;63355.56;5087765;28;20056;-76
2022/03/28 01:50:14;;;;;;;44.20;22.45;;;;;;;-141.50;100.00;63355.56;5088308;28;20052;-76
2022/03/28 01:52:41;;;;;;;49.22;25.23;;;;;;;-141.50;100.00;63355.56;5087782;28;20078;-77
2022/03/28 01:55:09;;;;;;;47.72;24.25;;;;;;;-141.50;100.00;63355.56;5089187;28;20048;-77
2022/03/28 01:57:37;;;;;;;45.97;23.10;;;;;;;-141.50;100.00;63355.56;5088747;28;20123;-75
2022/03/28 02:00:06;;;;;;;46.20;22.92;;;;;;;-141.50;100.00;63355.56;5087990;28;20079;-77
2022/03/28 02:02:33;;;;;;;48.10;24.65;;;;;;;-141.50;100.00;63355.56;5099088;28;20067;-77
2022/03/28 02:05:00;;;;;;;49.47;23.15;;;;;;;-141.50;100.00;63355.56;5108133;28;20063;-76
2022/03/28 02:07:26;;;;;;;43.60;23.70;;;;;;;-141.50;100.00;63355.56;5108327;28;20063;-77
2022/03/28 02:09:53;;;;;;;50.65;25.20;;;;;;;-141.50;100.00;63355.56;5106500;28;20048;-78
2022/03/28 02:12:19;;;;;;;49.50;25.65;;;;;;;-141.50;100.00;63355.56;5089782;28;20125;-78
2022/03/28 02:14:46;;;;;;;54.00;26.10;;;;;;;-141.50;100.00;63355.56;5097002;28;20055;-75
2022/03/28 02:17:12;;;;;;;49.53;24.83;;;;;;;-141.50;100.00;63355.56;5107626;28;20060;-75
2022/03/28 02:19:39;;;;;;;50.22;25.48;;;;;;;-141.50;100.00;63355.56;5109563;28;20100;-79
2022/03/28 02:22:06;;;;;;;49.70;24.05;;;;;;;-141.50;100.00;63355.56;5108420;28;20044;-77
2022/03/28 02:24:32;;;;;;;47.63;24.38;;;;;;;-141.50;100.00;63355.56;5091181;28;20548;-76
2022/03/28 02:26:59;;;;;;;49.55;25.08;;;;;;;-141.50;100.00;63355.56;5108768;28;20131;-75
2022/03/28 02:29:25;;;;;;;44.67;23.23;;;;;;;-141.50;100.00;63355.56;5108908;28;20055;-78
2022/03/28 02:31:52;;;;;;;43.42;22.48;;;;;;;-141.50;100.00;63355.56;5108604;28;20088;-75
2022/03/28 02:34:18;;;;;;;39.22;21.88;;;;;;;-141.50;100.00;63355.56;5109480;28;20101;-77
2022/03/28 02:36:45;;;;;;;37.28;21.15;;;;;;;-141.50;100.00;63355.56;5109547;28;20059;-77
2022/03/28 02:39:11;;;;;;;42.63;22.25;;;;;;;-141.50;100.00;63355.56;5124070;28;20067;-76
2022/03/28 02:41:38;;;;;;;40.03;20.48;;;;;;;-141.50;100.00;63355.56;5131891;28;20039;-78
2022/03/28 02:44:04;;;;;;;39.40;21.02;;;;;;;-141.50;100.00;63355.56;5127864;28;20080;-78
2022/03/28 02:46:32;;;;;;;40.38;21.88;;;;;;;-141.50;100.00;63355.56;5109860;28;20048;-77
2022/03/28 02:48:58;;;;;;;38.95;20.33;;;;;;;-141.50;100.00;63355.56;5109221;28;20047;-77
2022/03/28 02:51:25;;;;;;;39.33;21.45;;;;;;;-141.50;100.00;63355.56;5091124;28;20086;-76
2022/03/28 02:53:51;;;;;;;44.63;23.45;;;;;;;-141.50;100.00;63355.56;5110116;28;20073;-74
2022/03/28 02:56:18;;;;;;;44.65;23.70;;;;;;;-141.50;100.00;63355.56;5092654;28;20127;-76
2022/03/28 02:58:44;;;;;;;39.25;22.05;;;;;;;-141.50;100.00;63355.56;5109867;28;20404;-75
2022/03/28 03:01:11;;;;;;;42.00;23.15;;;;;;;-141.50;100.00;63355.56;5108336;28;20043;-75
2022/03/28 03:03:38;;;;;;;42.03;21.92;;;;;;;-141.50;100.00;63355.56;5113629;28;20514;-75
2022/03/28 03:06:04;;;;;;;52.58;24.13;;;;;;;-141.50;100.00;63355.56;5112648;28;20160;-76
2022/03/28 03:08:31;;;;;;;43.83;23.13;;;;;;;-141.50;100.00;63355.56;5113002;28;20051;-75
2022/03/28 03:10:58;;;;;;;46.35;23.80;;;;;;;-141.50;100.00;63355.56;5111300;28;20458;-76
2022/03/28 03:13:24;;;;;;;51.17;24.80;;;;;;;-141.50;100.00;63355.56;5104117;28;20484;-77
2022/03/28 03:15:51;;;;;;;55.17;27.95;;;;;;;-141.50;100.00;63355.56;5095864;28;20132;-76
2022/03/28 03:18:17;;;;;;;53.70;25.85;;;;;;;-141.50;100.00;63355.56;5092763;28;20113;-76
2022/03/28 03:20:44;;;;;;;50.22;26.02;;;;;;;-141.50;100.00;63355.56;5092731;28;20162;-75
2022/03/28 03:23:10;;;;;;;52.50;24.77;;;;;;;-141.50;100.00;63355.56;5091932;28;20242;-76
2022/03/28 03:25:37;;;;;;;54.88;26.13;;;;;;;-141.50;100.00;63355.56;5092348;28;20151;-76
2022/03/28 03:28:05;;;;;;;55.28;26.10;;;;;;;-141.50;100.00;63355.56;5092123;28;20142;-75
2022/03/28 03:30:31;;;;;;;47.08;25.77;;;;;;;-141.50;100.00;63355.56;5071673;28;20044;-79
2022/03/28 03:32:58;;;;;;;46.97;24.15;;;;;;;-141.50;100.00;63355.56;5090239;28;20501;-76
2022/03/28 03:35:24;;;;;;;47.25;23.98;;;;;;;-141.50;100.00;63355.56;5091310;28;20086;-76
2022/03/28 03:37:51;;;;;;;48.90;23.92;;;;;;;-141.50;100.00;63355.56;5091355;28;20645;-76
2022/03/28 03:40:18;;;;;;;46.25;23.33;;;;;;;-141.50;100.00;63355.56;5106376;28;20052;-78
2022/03/28 03:42:44;;;;;;;47.53;23.13;;;;;;;-141.50;100.00;63355.56;5099283;28;20058;-79
2022/03/28 03:45:11;;;;;;;49.10;23.67;;;;;;;-141.50;100.00;63355.56;5090157;28;20052;-78
2022/03/28 03:47:38;;;;;;;43.45;22.50;;;;;;;-141.50;100.00;63355.56;5091307;28;20093;-78
2022/03/28 03:50:05;;;;;;;47.75;22.55;;;;;;;-141.50;100.00;63355.56;5092007;28;20047;-79
2022/03/28 03:52:34;;;;;;;48.75;23.85;;;;;;;-141.50;100.00;63355.56;5090405;28;20052;-76
2022/03/28 03:55:01;;;;;;;44.10;22.38;;;;;;;-141.50;100.00;63355.56;5093654;28;20074;-77
2022/03/28 03:57:27;;;;;;;41.60;21.25;;;;;;;-141.50;100.00;63355.56;5094084;28;20057;-76
2022/03/28 03:59:54;;;;;;;41.92;21.25;;;;;;;-141.50;100.00;63355.56;5092941;28;20113;-76
2022/03/28 04:02:27;;;;;;;43.60;21.40;;;;;;;-141.50;100.00;63355.56;5091463;28;20234;-76
2022/03/28 04:04:54;;;;;;;42.08;21.17;;;;;;;-141.50;100.00;63355.56;5090873;28;20064;-77
2022/03/28 04:07:20;;;;;;;40.72;21.98;;;;;;;-141.50;100.00;63355.56;5090841;28;20086;-78
2022/03/28 04:09:47;;;;;;;40.53;21.27;;;;;;;-141.50;100.00;63355.56;5091252;28;20171;-79
2022/03/28 04:12:14;;;;;;;45.15;23.05;;;;;;;-141.50;100.00;63355.56;5090088;28;20047;-77
2022/03/28 04:14:41;;;;;;;44.97;22.73;;;;;;;-141.50;100.00;63355.56;5097927;28;20097;-78
2022/03/28 04:17:07;;;;;;;49.78;23.55;;;;;;;-141.50;100.00;63355.56;5108240;28;20096;-77
2022/03/28 04:19:34;;;;;;;44.33;22.90;;;;;;;-141.50;100.00;63355.56;5109368;28;20060;-76
2022/03/28 04:22:00;;;;;;;49.80;24.48;;;;;;;-141.50;100.00;63355.56;5112032;28;20437;-75
2022/03/28 04:24:27;;;;;;;45.25;23.38;;;;;;;-141.50;100.00;63355.56;5114384;28;20055;-77
2022/03/28 04:26:54;;;;;;;44.80;23.35;;;;;;;-141.50;100.00;63355.56;5112365;28;20318;-77
2022/03/28 04:29:21;;;;;;;42.80;22.83;;;;;;;-141.50;100.00;63355.56;5109929;28;20055;-77
2022/03/28 04:31:47;;;;;;;45.03;23.08;;;;;;;-141.50;100.00;63355.56;5109374;28;20056;-77
2022/03/28 04:34:14;;;;;;;46.80;24.65;;;;;;;-141.50;100.00;63355.56;5110217;28;20489;-79
2022/03/28 04:36:41;;;;;;;56.10;23.83;;;;;;;-141.50;100.00;63355.56;5110415;28;20082;-79
2022/03/28 04:39:08;;;;;;;46.05;22.35;;;;;;;-141.50;100.00;63355.56;5110016;28;20055;-78
2022/03/28 04:41:39;;;;;;;45.95;23.15;;;;;;;-141.50;100.00;63355.56;5108915;28;20050;-78
2022/03/28 04:44:05;;;;;;;44.92;22.15;;;;;;;-141.50;100.00;63355.56;5110045;28;20086;-77
2022/03/28 04:46:32;;;;;;;46.78;23.70;;;;;;;-141.50;100.00;63355.56;5091342;28;20511;-78
2022/03/28 04:48:58;;;;;;;46.35;22.52;;;;;;;-141.50;100.00;63355.56;5109124;28;20146;-76
2022/03/28 04:51:25;;;;;;;41.33;22.00;;;;;;;-141.50;100.00;63355.56;5082285;28;20048;-76
2022/03/28 04:53:53;;;;;;;41.10;21.73;;;;;;;-141.50;100.00;63355.56;5090119;28;20451;-77
2022/03/28 04:56:19;;;;;;;41.75;21.25;;;;;;;-141.50;100.00;63355.56;5071533;28;20069;-76
2022/03/28 04:58:46;;;;;;;53.78;23.58;;;;;;;-141.50;100.00;63355.56;5087082;28;20231;-76
2022/03/28 05:01:12;;;;;;;48.85;22.65;;;;;;;-141.50;100.00;63355.56;5071769;28;20048;-76
2022/03/28 05:03:39;;;;;;;48.97;22.05;;;;;;;-141.50;100.00;63355.56;5092498;28;20055;-76
2022/03/28 05:06:06;;;;;;;51.22;22.55;;;;;;;-141.50;100.00;63355.56;5096896;28;20051;-76
2022/03/28 05:08:33;;;;;;;45.45;21.98;;;;;;;-141.50;100.00;63355.56;5090642;28;20043;-75
2022/03/28 05:11:02;;;;;;;43.70;21.35;;;;;;;-141.50;100.00;63355.56;5089396;28;20308;-75
2022/03/28 05:13:28;;;;;;;41.95;21.50;;;;;;;-141.50;100.00;63355.56;5080032;28;20741;-76
2022/03/28 05:15:56;;;;;;;63.53;24.02;;;;;;;-141.50;100.00;63355.56;5062240;28;20082;-79
2022/03/28 05:18:23;;;;;;;46.63;22.40;;;;;;;-141.50;100.00;63355.56;5083322;28;20151;-79
2022/03/28 05:20:51;;;;;;;50.05;22.63;;;;;;;-141.50;100.00;63355.56;5071078;28;20620;-77
2022/03/28 05:23:17;;;;;;;43.75;20.75;;;;;;;-141.50;100.00;63355.56;5090149;28;20105;-77
2022/03/28 05:25:44;;;;;;;40.10;20.55;;;;;;;-141.50;100.00;63355.56;5088492;28;20165;-78
2022/03/28 05:28:11;;;;;;;44.65;21.10;;;;;;;-141.50;100.00;63355.56;5086320;28;20558;-77
2022/03/28 05:30:37;;;;;;;48.20;22.55;;;;;;;-141.50;100.00;63355.56;5093354;28;20047;-78
2022/03/28 05:33:04;;;;;;;52.78;24.90;;;;;;;-141.50;100.00;63355.56;5110767;28;20091;-79
2022/03/28 05:35:31;;;;;;;61.05;27.83;;;;;;;-141.50;100.00;63355.56;5092782;28;20118;-78
2022/03/28 05:37:58;;;;;;;70.63;27.73;;;;;;;-141.50;100.00;63355.56;5093485;28;20056;-78
2022/03/28 05:40:25;;;;;;;77.93;26.85;;;;;;;-141.50;100.00;63355.56;5092459;28;20097;-76
2022/03/28 05:42:51;;;;;;;79.70;28.65;;;;;;;-141.50;100.00;63355.56;5090906;28;20496;-77
2022/03/28 05:45:18;;;;;;;82.95;28.77;;;;;;;-141.50;100.00;63355.56;5091924;28;20071;-78
2022/03/28 05:47:45;;;;;;;71.80;27.50;;;;;;;-141.50;100.00;63355.56;5085590;28;20470;-78
2022/03/28 05:50:11;;;;;;;72.70;30.67;;;;;;;-141.50;100.00;63355.56;5086435;28;20082;-77
2022/03/28 05:52:38;;;;;;;70.07;31.05;;;;;;;-141.50;100.00;63355.56;5085283;28;20083;-76
2022/03/28 05:55:05;;;;;;;73.50;29.27;;;;;;;-141.50;100.00;63355.56;5088312;28;20056;-77
2022/03/28 05:57:32;;;;;;;64.15;27.88;;;;;;;-141.50;100.00;63355.56;5095239;28;20454;-79
2022/03/28 05:59:58;;;;;;;67.93;29.58;;;;;;;-141.50;100.00;63355.56;5086944;28;20117;-78
2022/03/28 06:02:25;;;;;;;64.80;31.15;;;;;;;-141.50;100.00;63355.56;5097156;28;20047;-80
2022/03/28 06:04:52;;;;;;;57.03;30.35;;;;;;;-141.50;100.00;63355.56;5109332;28;20417;-80
2022/03/28 06:07:18;;;;;;;77.80;33.45;;;;;;;-141.50;100.00;63355.56;5114699;28;20043;-79
2022/03/28 06:09:45;;;;;;;69.45;35.20;;;;;;;-141.50;100.00;63355.56;5107440;28;20097;-77
2022/03/28 06:12:13;;;;;;;60.95;31.02;;;;;;;-141.50;100.00;63355.56;5103033;28;20525;-76
2022/03/28 06:14:39;;;;;;;62.53;32.13;;;;;;;-141.50;100.00;63355.56;5093428;28;20375;-78
2022/03/28 06:17:06;;;;;;;60.42;32.83;;;;;;;-141.50;100.00;63355.56;5092174;28;20064;-77
2022/03/28 06:19:33;;;;;;;74.57;34.83;;;;;;;-141.50;100.00;63355.56;5066403;28;20147;-78
2022/03/28 06:21:59;;;;;;;68.28;34.38;;;;;;;-141.50;100.00;63355.56;5084357;28;20052;-77
2022/03/28 06:24:26;;;;;;;72.82;37.55;;;;;;;-141.50;100.00;63355.56;5065603;28;20064;-78
2022/03/28 06:26:53;;;;;;;74.65;39.05;;;;;;;-141.50;100.00;63355.56;5066876;28;20052;-79
2022/03/28 06:29:20;;;;;;;74.53;38.58;;;;;;;-141.50;100.00;63355.56;5084361;28;20474;-79
2022/03/28 06:31:47;;;;;;;70.68;39.05;;;;;;;-141.50;100.00;63355.56;5083890;28;20078;-80
2022/03/28 06:34:14;;;;;;;77.30;36.70;;;;;;;-141.50;100.00;63355.56;5085401;28;20529;-78
2022/03/28 06:36:44;;;;;;;64.15;35.50;;;;;;;-141.50;100.00;63355.56;5083318;28;20050;-78
2022/03/28 06:39:12;;;;;;;61.28;34.47;;;;;;;-141.50;100.00;63355.56;5102923;28;20051;-77
2022/03/28 06:41:38;;;;;;;65.97;37.63;;;;;;;-141.50;100.00;63355.56;5106156;28;20204;-79
2022/03/28 06:44:07;;;;;;;76.15;38.92;;;;;;;-141.50;100.00;63355.56;5088389;28;20087;-75
2022/03/28 06:46:34;;;;;;;70.07;39.40;;;;;;;-141.50;100.00;63355.56;5088782;28;20067;-78
2022/03/28 06:49:02;;;;;;;69.07;36.97;;;;;;;-141.50;100.00;63355.56;5087692;28;20047;-78
2022/03/28 06:51:28;;;;;;;69.28;37.40;;;;;;;-141.50;100.00;63355.56;5070535;28;20060;-79
2022/03/28 06:53:55;;;;;;;65.22;36.13;;;;;;;-141.50;100.00;63355.56;5089405;28;20048;-78
2022/03/28 06:56:22;;;;;;;60.53;35.10;;;;;;;-141.50;100.00;63355.56;5087513;28;20076;-78
2022/03/28 06:58:48;;;;;;;68.10;37.58;;;;;;;-141.50;100.00;63355.56;5088340;28;20048;-79
2022/03/28 07:01:15;;;;;;;61.92;36.72;;;;;;;-141.50;100.00;63355.56;5088612;28;20072;-77
2022/03/28 07:03:42;;;;;;;65.60;36.22;;;;;;;-141.50;100.00;63355.56;5088484;28;20052;-78
2022/03/28 07:06:09;;;;;;;65.90;34.65;;;;;;;-141.50;100.00;63355.56;5085577;28;20056;-78
2022/03/28 07:08:36;;;;;;;72.60;33.20;;;;;;;-141.50;100.00;63355.56;5083404;28;20563;-79
2022/03/28 07:11:03;;;;;;;55.33;32.15;;;;;;;-141.50;100.00;63355.56;5068356;28;20080;-76
2022/03/28 07:13:30;;;;;;;54.17;33.20;;;;;;;-141.50;100.00;63355.56;5076621;28;20096;-78
2022/03/28 07:15:57;;;;;;;56.35;31.83;;;;;;;-141.50;100.00;63355.56;5104073;28;20051;-78
2022/03/28 07:18:23;;;;;;;51.83;32.22;;;;;;;-141.50;100.00;63355.56;5109402;28;20052;-76
2022/03/28 07:20:50;;;;;;;51.05;31.25;;;;;;;-141.50;100.00;63355.56;5104513;28;20885;-74
2022/03/28 07:23:20;;;;;;;49.47;29.45;;;;;;;-141.50;100.00;63355.56;5101952;28;20126;-78
2022/03/28 07:25:46;;;;;;;44.90;28.02;;;;;;;-141.50;100.00;63355.56;5118252;28;20071;-76
2022/03/28 07:28:14;;;;;;;48.45;27.98;;;;;;;-141.50;100.00;63355.56;5111865;28;20044;-80
2022/03/28 07:30:41;;;;;;;48.08;28.98;;;;;;;-141.50;100.00;63355.56;5109189;28;20047;-77
2022/03/28 07:33:08;;;;;;;43.90;28.88;;;;;;;-141.50;100.00;63355.56;5115649;28;20096;-80
2022/03/28 07:35:36;;;;;;;44.42;26.98;;;;;;;-141.50;100.00;63355.56;5121194;28;20502;-81
2022/03/28 07:38:08;;;;;;;39.88;26.42;;;;;;;-141.50;100.00;63355.56;5116558;28;20059;-79
2022/03/28 07:40:36;;;;;;;38.08;25.40;;;;;;;-141.50;100.00;63355.56;5117923;28;20052;-81
2022/03/28 07:43:03;;;;;;;40.38;25.48;;;;;;;-141.50;100.00;63355.56;5087866;28;20048;-78
2022/03/28 07:45:30;;;;;;;36.20;24.85;;;;;;;-141.50;100.00;63355.56;5111606;28;20073;-81
2022/03/28 07:47:57;;;;;;;32.95;24.13;;;;;;;-141.50;100.00;63355.56;5112487;28;20055;-82
2022/03/28 07:50:24;;;;;;;36.20;23.88;;;;;;;-141.50;100.00;63355.56;5107451;28;20048;-80
2022/03/28 07:52:51;;;;;;;37.40;24.20;;;;;;;-141.50;100.00;63355.56;5100025;28;20063;-78
2022/03/28 07:55:18;;;;;;;35.10;22.50;;;;;;;-141.50;100.00;63355.56;5082059;28;20080;-83
2022/03/28 07:57:45;;;;;;;28.30;20.70;;;;;;;-141.50;100.00;63355.56;5102462;28;20075;-81
2022/03/28 08:00:20;;;;;;;32.47;19.70;;;;;;;-141.50;100.00;63355.56;5098653;28;20419;-80
2022/03/28 08:02:50;;;;;;;30.33;20.73;;;;;;;-141.50;100.00;63355.56;5091768;28;20471;-81
2022/03/28 08:05:17;;;;;;;30.40;20.85;;;;;;;-141.50;100.00;63355.56;5092066;28;20072;-75
2022/03/28 08:07:43;;;;;;;25.23;18.13;;;;;;;-141.50;100.00;63355.56;5086232;28;20072;-78
2022/03/28 08:10:10;;;;;;;26.42;18.90;;;;;;;-141.50;100.00;63355.56;5081641;28;20469;-78
2022/03/28 08:12:37;;;;;;;26.38;18.30;;;;;;;-141.50;100.00;63355.56;5089759;28;20419;-79
2022/03/28 08:15:09;;;;;;;26.60;18.23;;;;;;;-141.50;100.00;63355.56;5088234;28;20428;-78
2022/03/28 08:17:36;;;;;;;28.90;17.55;;;;;;;-141.50;100.00;63355.56;5092791;28;20051;-79
2022/03/28 08:20:09;;;;;;;23.20;16.98;;;;;;;-141.50;100.00;63355.56;5094165;28;20048;-77
2022/03/28 08:22:42;;;;;;;24.85;17.38;;;;;;;-141.50;100.00;63355.56;5093964;28;20040;-81
2022/03/28 08:25:09;;;;;;;23.23;17.02;;;;;;;-141.50;100.00;63355.56;5093531;28;21258;-79
2022/03/28 08:27:36;;;;;;;24.13;17.40;;;;;;;-141.50;100.00;63355.56;5094549;28;20484;-79
2022/03/28 08:30:04;;;;;;;24.02;17.00;;;;;;;-141.50;100.00;63355.56;5099512;28;20048;-77
2022/03/28 08:32:40;;;;;;;22.42;17.15;;;;;;;-141.50;100.00;63355.56;5107064;28;20046;-80
2022/03/28 08:35:07;;;;;;;23.08;17.15;;;;;;;-141.50;100.00;63355.56;5096753;28;20083;-80
2022/03/28 08:37:38;;;;;;;24.92;16.88;;;;;;;-141.50;100.00;63355.56;5089428;28;20048;-80
2022/03/28 08:40:10;;;;;;;23.60;17.02;;;;;;;-141.50;100.00;63355.56;5093261;28;20086;-78
2022/03/28 08:42:38;;;;;;;28.10;18.45;;;;;;;-141.50;100.00;63355.56;5092623;28;20096;-79
2022/03/28 08:45:07;;;;;;;25.48;17.55;;;;;;;-141.50;100.00;63355.56;5093780;28;20167;-79
2022/03/28 08:47:38;;;;;;;23.83;17.35;;;;;;;-141.50;100.00;63355.56;5090203;28;20105;-80
2022/03/28 08:50:26;;;;;;;25.27;18.33;;;;;;;-141.50;100.00;63355.56;5089021;28;20051;-79
2022/03/28 08:52:52;;;;;;;25.05;18.08;;;;;;;-141.50;100.00;63355.56;5087998;28;20044;-79
2022/03/28 08:55:19;;;;;;;25.98;17.85;;;;;;;-141.50;100.00;63355.56;5072616;28;20076;-78
2022/03/28 08:57:46;;;;;;;24.15;18.52;;;;;;;-141.50;100.00;63355.56;5087719;28;20086;-78
2022/03/28 09:00:12;;;;;;;25.58;18.85;;;;;;;-141.50;100.00;63355.56;5088385;28;20079;-78
2022/03/28 09:02:47;;;;;;;27.13;18.30;;;;;;;-141.50;100.00;63355.56;5088189;28;20040;-80
2022/03/28 09:05:18;;;;;;;24.45;18.00;;;;;;;-141.50;100.00;63355.56;5088222;28;20075;-77
2022/03/28 09:07:47;;;;;;;25.38;18.58;;;;;;;-141.50;100.00;63355.56;5087746;28;20527;-79
2022/03/28 09:10:18;;;;;;;26.15;18.10;;;;;;;-141.50;100.00;63355.56;5086902;28;20113;-77
2022/03/28 09:13:07;;;;;;;22.92;17.23;;;;;;;-141.50;100.00;63355.56;5087252;28;20055;-78
2022/03/28 09:16:01;;;;;;;24.75;17.40;;;;;;;-141.50;100.00;63355.56;5086079;28;20113;-78
2022/03/28 09:18:32;;;;;;;24.48;16.92;;;;;;;-141.50;100.00;63355.56;5093905;28;20051;-78
2022/03/28 09:21:07;;;;;;;23.83;15.95;;;;;;;-141.50;100.00;63355.56;5092258;28;20070;-78
2022/03/28 09:23:40;;;;;;;24.87;15.97;;;;;;;-141.50;100.00;63355.56;5090366;28;20048;-79
2022/03/28 09:26:09;;;;;;;20.98;14.20;;;;;;;-141.50;100.00;63355.56;5078113;28;20444;-80
2022/03/28 09:28:38;;;;;;;22.10;14.80;;;;;;;-141.50;100.00;63355.56;5086099;28;20101;-79
2022/03/28 09:31:18;;;;;;;20.85;14.40;;;;;;;-141.50;100.00;63355.56;5076522;28;20453;-78
2022/03/28 09:34:07;;;;;;;19.45;13.40;;;;;;;-141.50;100.00;63355.56;5099445;28;20063;-78
2022/03/28 09:36:34;;;;;;;20.20;13.23;;;;;;;-141.50;100.00;63355.56;5102992;28;20048;-76
2022/03/28 09:39:03;;;;;;;19.13;12.48;;;;;;;-141.50;100.00;63355.56;5090235;28;20068;-78
2022/03/28 09:41:30;;;;;;;19.00;12.68;;;;;;;-141.50;100.00;63355.56;5069455;28;20080;-79
2022/03/28 09:43:57;;;;;;;18.95;12.80;;;;;;;-141.50;100.00;63355.56;5087215;28;20051;-76
2022/03/28 09:46:25;;;;;;;17.98;11.85;;;;;;;-141.50;100.00;63355.56;5088990;28;20079;-79
2022/03/28 09:48:53;;;;;;;22.55;11.68;;;;;;;-141.50;100.00;63355.56;5090442;28;20135;-77
2022/03/28 09:51:23;;;;;;;15.80;10.48;;;;;;;-141.50;100.00;63355.56;5086115;28;20055;-78
2022/03/28 09:53:50;;;;;;;20.50;11.60;;;;;;;-141.50;100.00;63355.56;5097649;28;20039;-77
2022/03/28 09:56:16;;;;;;;18.98;10.60;;;;;;;-141.50;100.00;63355.56;5105519;28;20087;-78
2022/03/28 09:58:47;;;;;;;18.75;12.05;;;;;;;-141.50;100.00;63355.56;5087364;28;20512;-78
2022/03/28 10:01:25;;;;;;;19.70;11.88;;;;;;;-141.50;100.00;63355.56;5086372;28;20070;-78
2022/03/28 10:03:55;;;;;;;16.88;11.85;;;;;;;-141.50;100.00;63355.56;5087258;28;20093;-77
2022/03/28 10:06:22;;;;;;;17.52;12.15;;;;;;;-141.50;100.00;63355.56;5087133;28;20044;-78
2022/03/28 10:08:50;;;;;;;23.75;12.35;;;;;;;-141.50;100.00;63355.56;5085589;28;20072;-78
2022/03/28 10:11:17;;;;;;;19.17;12.68;;;;;;;-141.50;100.00;63355.56;5087849;28;20067;-77
2022/03/28 10:13:45;;;;;;;23.65;16.95;;;;;;;-141.50;100.00;63355.56;5090001;28;20137;-78
2022/03/28 10:16:12;;;;;;;18.35;12.50;;;;;;;-141.50;100.00;63355.56;5095200;28;20069;-79
2022/03/28 10:18:41;;;;;;;19.48;12.98;;;;;;;-141.50;100.00;63355.56;5091940;28;20044;-79
2022/03/28 10:21:17;;;;;;;17.15;11.55;;;;;;;-141.50;100.00;63355.56;5089990;28;20146;-79
2022/03/28 10:24:08;;;;;;;19.33;11.50;;;;;;;-141.50;100.00;63355.56;5070774;28;20352;-78
2022/03/28 10:26:44;;;;;;;16.73;11.02;;;;;;;-141.50;100.00;63355.56;5091231;28;20169;-79
2022/03/28 10:29:19;;;;;;;18.10;11.48;;;;;;;-141.50;100.00;63355.56;5091364;28;20095;-77
2022/03/28 10:31:53;;;;;;;18.73;11.93;;;;;;;-141.50;100.00;63355.56;5073497;28;20044;-78
2022/03/28 10:34:52;;;;;;;15.93;11.38;;;;;;;-141.50;100.00;63355.56;5097805;28;20062;-79
2022/03/28 10:37:38;;;;;;;23.02;11.45;;;;;;;-141.50;100.00;63355.56;5090953;28;20052;-79
2022/03/28 10:40:23;;;;;;;17.02;11.43;;;;;;;-141.50;100.00;63355.56;5091656;28;20055;-79
2022/03/28 10:43:13;;;;;;;16.05;11.70;;;;;;;-141.50;100.00;63355.56;5089165;28;20056;-81
2022/03/28 10:45:49;;;;;;;16.77;11.60;;;;;;;-141.50;100.00;63355.56;5083134;28;20044;-81
2022/03/28 10:48:31;;;;;;;12.93;9.95;;;;;;;-141.50;100.00;63355.56;5094457;28;20094;-78
2022/03/28 10:51:04;;;;;;;12.15;9.60;;;;;;;-141.50;100.00;63355.56;5106953;28;20121;-78
2022/03/28 10:53:37;;;;;;;17.52;11.23;;;;;;;-141.50;100.00;63355.56;5118066;28;20036;-79
2022/03/28 10:56:13;;;;;;;13.95;9.68;;;;;;;-141.50;100.00;63355.56;5093251;28;20159;-79
2022/03/28 10:58:46;;;;;;;15.65;10.32;;;;;;;-141.50;100.00;63355.56;5088799;28;20102;-79
2022/03/28 11:01:20;;;;;;;12.48;9.93;;;;;;;-141.50;100.00;63355.56;5088582;28;20048;-77